Time;durP1;ratioP1;P1;durP2;ratioP2;P2;SDS_P1;SDS_P2;PMS_P1;PMS_P2;Temp;Humidity;BMP_temperature;BMP_pressure;BME280_temperature;BME280_humidity;BME280_pressure;Samples;Min_cycle;Max_cycle;Signal;HPM_P1;HPM_P2
2022/07/10 00:01:00;;;;;;;0.80;0.80;;;20.60;99.90;;;;;;5011509;28;20202;-64
2022/07/10 00:03:26;;;;;;;0.80;0.80;;;20.50;99.90;;;;;;5008178;28;20225;-62
2022/07/10 00:05:53;;;;;;;0.80;0.80;;;20.40;99.90;;;;;;5009062;28;20626;-63
2022/07/10 00:08:20;;;;;;;0.70;0.70;;;20.30;99.90;;;;;;4998328;28;20289;-64
2022/07/10 00:10:47;;;;;;;0.73;0.73;;;20.20;99.90;;;;;;5003536;28;20309;-62
2022/07/10 00:13:15;;;;;;;1.10;0.80;;;20.20;99.90;;;;;;4994088;28;20767;-64
2022/07/10 00:15:42;;;;;;;0.80;0.80;;;20.10;99.90;;;;;;4999350;28;20225;-63
2022/07/10 00:18:09;;;;;;;0.80;0.80;;;20.10;99.90;;;;;;4997042;28;20288;-64
2022/07/10 00:20:37;;;;;;;0.82;0.82;;;20.00;99.90;;;;;;4998924;28;20220;-63
2022/07/10 00:23:03;;;;;;;0.73;0.73;;;20.00;99.90;;;;;;4994674;28;20735;-64
2022/07/10 00:25:38;;;;;;;0.63;0.63;;;20.00;99.90;;;;;;5092429;27;20548;-63
2022/07/10 00:28:05;;;;;;;0.60;0.60;;;20.00;99.90;;;;;;5086700;28;20297;-64
2022/07/10 00:30:32;;;;;;;0.70;0.70;;;20.00;99.90;;;;;;5123704;22;20404;-61
2022/07/10 00:32:59;;;;;;;0.80;0.80;;;19.90;99.90;;;;;;5108461;28;20202;-60
2022/07/10 00:35:26;;;;;;;0.70;0.70;;;19.90;99.90;;;;;;5108577;28;20198;-61
2022/07/10 00:37:53;;;;;;;0.80;0.80;;;19.80;99.90;;;;;;5108372;28;20854;-61
2022/07/10 00:40:20;;;;;;;0.90;0.90;;;19.70;99.90;;;;;;5104667;28;20973;-62
2022/07/10 00:42:49;;;;;;;0.70;0.70;;;19.80;99.90;;;;;;5105385;28;20213;-63
2022/07/10 00:45:16;;;;;;;0.73;0.73;;;19.80;99.90;;;;;;5097462;28;20367;-61
2022/07/10 00:47:43;;;;;;;0.60;0.60;;;19.70;99.90;;;;;;5108908;28;20284;-62
2022/07/10 00:50:11;;;;;;;0.90;0.80;;;19.80;99.90;;;;;;5108424;28;20213;-61
2022/07/10 00:52:38;;;;;;;0.90;0.90;;;19.80;99.90;;;;;;5108760;28;20220;-62
2022/07/10 00:55:07;;;;;;;0.77;0.77;;;19.70;99.90;;;;;;5108806;28;20597;-63
2022/07/10 00:57:34;;;;;;;0.80;0.80;;;19.70;99.90;;;;;;5109035;28;20680;-63
2022/07/10 01:00:02;;;;;;;0.80;0.80;;;19.70;99.90;;;;;;5108106;28;20313;-62
2022/07/10 01:02:29;;;;;;;0.85;0.85;;;19.70;99.90;;;;;;5108524;28;20715;-62
2022/07/10 01:04:58;;;;;;;0.70;0.70;;;19.70;99.90;;;;;;5108493;28;20215;-61
2022/07/10 01:07:25;;;;;;;0.68;0.68;;;19.60;99.90;;;;;;5108533;28;20648;-61
2022/07/10 01:09:52;;;;;;;1.20;0.70;;;19.50;99.90;;;;;;5108043;28;20275;-61
2022/07/10 01:12:18;;;;;;;0.85;0.63;;;19.60;99.90;;;;;;5108038;28;20217;-61
2022/07/10 01:14:45;;;;;;;0.70;0.70;;;19.50;99.90;;;;;;5109158;28;20198;-61
2022/07/10 01:17:15;;;;;;;0.60;0.60;;;19.50;99.90;;;;;;5108870;28;20198;-61
2022/07/10 01:19:42;;;;;;;0.70;0.70;;;19.50;99.90;;;;;;5107215;28;20222;-61
2022/07/10 01:22:10;;;;;;;0.68;0.68;;;19.50;99.90;;;;;;5108166;28;20304;-61
2022/07/10 01:24:37;;;;;;;0.60;0.60;;;19.50;99.90;;;;;;5106902;28;20769;-61
2022/07/10 01:27:04;;;;;;;0.68;0.68;;;19.50;99.90;;;;;;5108128;28;20230;-62
2022/07/10 01:29:32;;;;;;;0.90;0.90;;;19.60;99.90;;;;;;5107348;28;20257;-63
2022/07/10 01:32:00;;;;;;;0.77;0.77;;;19.70;99.90;;;;;;5110758;28;20561;-63
2022/07/10 01:34:28;;;;;;;0.80;0.80;;;19.80;99.90;;;;;;5110446;28;20202;-62
2022/07/10 01:36:55;;;;;;;0.73;0.73;;;19.80;99.90;;;;;;5095464;28;20259;-63
2022/07/10 01:39:23;;;;;;;0.70;0.70;;;19.80;99.90;;;;;;5089401;28;20218;-63
2022/07/10 01:41:50;;;;;;;0.77;0.77;;;19.80;99.90;;;;;;5094517;28;20230;-62
2022/07/10 01:44:16;;;;;;;0.68;0.68;;;19.80;99.90;;;;;;5094550;28;20219;-62
2022/07/10 01:46:48;;;;;;;0.80;0.80;;;19.90;99.90;;;;;;5092536;28;20633;-63
2022/07/10 01:49:15;;;;;;;0.77;0.77;;;19.90;99.90;;;;;;5093825;28;20228;-63
2022/07/10 01:51:43;;;;;;;0.70;0.70;;;19.90;99.90;;;;;;5094555;28;20199;-63
2022/07/10 01:54:10;;;;;;;0.93;0.93;;;19.90;99.90;;;;;;5094234;28;20198;-62
2022/07/10 01:56:39;;;;;;;0.47;0.47;;;19.90;99.90;;;;;;5094371;28;20206;-62
2022/07/10 01:59:06;;;;;;;0.70;0.70;;;19.90;99.90;;;;;;5093471;28;20199;-62
2022/07/10 02:01:33;;;;;;;0.70;0.70;;;19.80;99.90;;;;;;5094422;28;20565;-62
2022/07/10 02:06:44;;;;;;;0.90;0.90;;;19.80;99.90;;;;;;5089241;28;20247;-61
2022/07/10 02:09:11;;;;;;;0.75;0.75;;;19.90;99.90;;;;;;5093964;28;20675;-63
2022/07/10 02:11:39;;;;;;;0.73;0.73;;;20.00;99.90;;;;;;5094878;28;20302;-63
2022/07/10 02:14:08;;;;;;;0.60;0.60;;;20.00;99.90;;;;;;5081113;28;20219;-62
2022/07/10 02:16:35;;;;;;;0.70;0.70;;;20.00;99.90;;;;;;5095899;28;20679;-61
2022/07/10 02:19:02;;;;;;;0.80;0.80;;;20.00;99.90;;;;;;5104220;28;20199;-61
2022/07/10 02:21:29;;;;;;;0.60;0.60;;;20.10;99.90;;;;;;5112175;28;20206;-62
2022/07/10 02:23:56;;;;;;;0.68;0.68;;;20.10;99.90;;;;;;5098217;28;20281;-62
2022/07/10 02:26:23;;;;;;;0.70;0.70;;;20.00;99.90;;;;;;5094163;28;20340;-63
2022/07/10 02:28:51;;;;;;;0.80;0.80;;;20.00;99.90;;;;;;5092615;28;20285;-63
2022/07/10 02:31:18;;;;;;;0.73;0.73;;;20.00;99.90;;;;;;5094076;28;20198;-62
2022/07/10 02:33:45;;;;;;;0.70;0.70;;;19.90;99.90;;;;;;5093326;28;20719;-62
2022/07/10 02:36:12;;;;;;;0.77;0.77;;;19.80;99.90;;;;;;5093518;28;20226;-62
2022/07/10 02:38:38;;;;;;;0.70;0.70;;;19.70;99.90;;;;;;5092792;28;20202;-61
2022/07/10 02:41:05;;;;;;;1.05;1.05;;;19.70;99.90;;;;;;5093361;28;20305;-61
2022/07/10 02:43:32;;;;;;;1.00;1.00;;;19.60;99.90;;;;;;5093605;28;20241;-62
2022/07/10 02:46:01;;;;;;;0.80;0.80;;;19.60;99.90;;;;;;5093735;28;20214;-62
2022/07/10 02:48:28;;;;;;;0.98;0.98;;;19.60;99.90;;;;;;5091620;28;20226;-61
2022/07/10 02:50:55;;;;;;;0.80;0.80;;;19.50;99.90;;;;;;5093128;28;20310;-61
2022/07/10 02:53:22;;;;;;;0.90;0.90;;;19.50;99.90;;;;;;5092832;28;20660;-61
2022/07/10 02:55:49;;;;;;;0.93;0.93;;;19.60;99.90;;;;;;5093353;28;20198;-62
2022/07/10 02:58:17;;;;;;;0.90;0.90;;;19.60;99.90;;;;;;5093269;28;20205;-62
2022/07/10 03:00:44;;;;;;;1.00;1.00;;;19.50;99.90;;;;;;5083623;28;20230;-63
2022/07/10 03:03:12;;;;;;;1.10;1.10;;;19.60;99.90;;;;;;5093491;28;20253;-62
2022/07/10 03:05:39;;;;;;;2.25;1.05;;;19.50;99.90;;;;;;5100093;28;20220;-61
2022/07/10 03:08:06;;;;;;;0.82;0.82;;;19.40;99.90;;;;;;5100383;28;20285;-62
2022/07/10 03:10:33;;;;;;;1.00;1.00;;;19.50;99.90;;;;;;5097478;28;20254;-62
2022/07/10 03:13:00;;;;;;;0.90;0.90;;;19.40;99.90;;;;;;5099126;28;20209;-62
2022/07/10 03:15:26;;;;;;;0.80;0.80;;;19.40;99.90;;;;;;5095195;28;20293;-63
2022/07/10 03:17:53;;;;;;;0.88;0.88;;;19.40;99.90;;;;;;5093125;28;20234;-61
2022/07/10 03:20:21;;;;;;;0.93;0.93;;;19.50;99.90;;;;;;5092087;28;20219;-61
2022/07/10 03:22:48;;;;;;;0.82;0.82;;;19.40;99.90;;;;;;5093165;28;20199;-61
2022/07/10 03:25:15;;;;;;;0.75;0.75;;;19.40;99.90;;;;;;5092821;28;20254;-61
2022/07/10 03:27:42;;;;;;;0.80;0.80;;;19.30;99.90;;;;;;5092570;28;20298;-62
2022/07/10 03:30:10;;;;;;;1.80;1.10;;;19.30;99.90;;;;;;5092037;28;20317;-61
2022/07/10 03:32:38;;;;;;;0.80;0.80;;;19.30;99.90;;;;;;5092870;28;20281;-62
2022/07/10 03:35:05;;;;;;;0.70;0.70;;;19.30;99.90;;;;;;5093454;28;20203;-62
2022/07/10 03:37:34;;;;;;;0.70;0.70;;;19.20;99.90;;;;;;5097830;28;20238;-62
2022/07/10 03:40:00;;;;;;;0.70;0.70;;;19.10;99.90;;;;;;5092530;28;20688;-62
2022/07/10 03:42:27;;;;;;;0.75;0.75;;;19.10;99.90;;;;;;5094111;28;20209;-62
2022/07/10 03:44:54;;;;;;;0.88;0.88;;;19.10;99.90;;;;;;5095086;28;20616;-62
2022/07/10 03:47:21;;;;;;;0.65;0.65;;;18.90;99.90;;;;;;5094066;28;20209;-62
2022/07/10 03:49:48;;;;;;;1.00;0.90;;;18.90;99.90;;;;;;5092140;28;20313;-62
2022/07/10 03:52:15;;;;;;;0.90;0.90;;;18.80;99.90;;;;;;5092731;28;20345;-62
2022/07/10 03:54:43;;;;;;;1.45;0.90;;;18.80;99.90;;;;;;5092182;28;20210;-62
2022/07/10 03:59:54;;;;;;;0.60;0.60;;;18.70;99.90;;;;;;5091180;28;20711;-62
2022/07/10 04:02:21;;;;;;;0.80;0.80;;;18.70;99.90;;;;;;5092515;28;20203;-62
2022/07/10 04:04:47;;;;;;;0.88;0.88;;;18.70;99.90;;;;;;5091681;28;20228;-62
2022/07/10 04:07:14;;;;;;;0.80;0.80;;;18.80;99.90;;;;;;5092511;28;20199;-61
2022/07/10 04:09:43;;;;;;;0.90;0.90;;;18.80;99.90;;;;;;5091333;28;20214;-62
2022/07/10 04:12:09;;;;;;;1.17;1.08;;;18.80;99.90;;;;;;5092503;28;20237;-61
2022/07/10 04:14:36;;;;;;;0.73;0.73;;;18.70;99.90;;;;;;5091966;28;20206;-62
2022/07/10 04:17:03;;;;;;;1.17;0.98;;;18.70;99.90;;;;;;5091777;28;20583;-63
2022/07/10 04:19:30;;;;;;;0.90;0.90;;;18.70;99.90;;;;;;5091238;28;20229;-62
2022/07/10 04:21:57;;;;;;;0.80;0.80;;;18.70;99.90;;;;;;5092046;28;20217;-61
2022/07/10 04:24:24;;;;;;;0.85;0.80;;;18.60;99.90;;;;;;5091525;28;20206;-62
2022/07/10 04:26:52;;;;;;;0.93;0.93;;;18.60;99.90;;;;;;5091470;28;20290;-62
2022/07/10 04:29:19;;;;;;;1.38;0.90;;;18.60;99.90;;;;;;5090469;28;20230;-62
2022/07/10 04:31:46;;;;;;;0.90;0.90;;;18.60;99.90;;;;;;5092052;28;20578;-63
2022/07/10 04:34:13;;;;;;;0.80;0.80;;;18.50;99.90;;;;;;5091836;28;20198;-61
2022/07/10 04:36:39;;;;;;;1.10;0.95;;;18.30;99.90;;;;;;5091645;28;20205;-62
2022/07/10 04:39:06;;;;;;;0.88;0.88;;;18.30;99.90;;;;;;5091011;28;20290;-61
2022/07/10 04:41:33;;;;;;;1.20;1.10;;;18.30;99.90;;;;;;5091519;28;20298;-62
2022/07/10 04:44:01;;;;;;;0.80;0.80;;;18.30;99.90;;;;;;5091551;28;20230;-62
2022/07/10 04:46:28;;;;;;;0.80;0.80;;;18.30;99.90;;;;;;5091217;28;20309;-61
2022/07/10 04:48:55;;;;;;;1.00;1.00;;;18.30;99.90;;;;;;5090479;28;20290;-61
2022/07/10 04:51:23;;;;;;;1.10;1.00;;;18.20;99.90;;;;;;5091405;28;20606;-61
2022/07/10 04:53:50;;;;;;;1.02;1.02;;;18.10;99.90;;;;;;5091416;28;20653;-63
2022/07/10 04:56:16;;;;;;;1.47;1.03;;;18.10;99.90;;;;;;5091062;28;20205;-62
2022/07/10 04:58:43;;;;;;;0.90;0.90;;;18.20;99.90;;;;;;5090770;28;20230;-62
2022/07/10 05:01:11;;;;;;;0.85;0.85;;;18.10;99.90;;;;;;5091453;28;20225;-62
2022/07/10 05:03:38;;;;;;;0.85;0.85;;;18.10;99.90;;;;;;5091487;28;20210;-61
2022/07/10 05:06:05;;;;;;;0.80;0.80;;;18.10;99.90;;;;;;5091552;28;20214;-61
2022/07/10 05:08:32;;;;;;;0.85;0.85;;;18.00;99.90;;;;;;5090103;28;20285;-61
2022/07/10 05:10:59;;;;;;;1.10;0.98;;;18.00;99.90;;;;;;5093015;28;20598;-62
2022/07/10 05:13:26;;;;;;;0.88;0.88;;;18.00;99.90;;;;;;5095276;28;20625;-61
2022/07/10 05:15:53;;;;;;;0.70;0.70;;;18.00;99.90;;;;;;5094807;28;20293;-62
2022/07/10 05:18:21;;;;;;;1.00;1.00;;;18.00;99.90;;;;;;5094883;28;20230;-61
2022/07/10 05:20:49;;;;;;;1.05;0.90;;;18.10;99.90;;;;;;5095098;28;20218;-62
2022/07/10 05:23:16;;;;;;;1.20;1.10;;;18.20;99.90;;;;;;5094493;28;20230;-62
2022/07/10 05:25:43;;;;;;;1.10;1.05;;;18.10;99.90;;;;;;5094588;28;20301;-61
2022/07/10 05:28:12;;;;;;;0.65;0.65;;;18.10;99.90;;;;;;5095423;28;20209;-61
2022/07/10 05:30:39;;;;;;;0.75;0.70;;;18.10;99.90;;;;;;5094432;28;20238;-64
2022/07/10 05:33:06;;;;;;;0.90;0.90;;;18.20;99.90;;;;;;5096218;28;20199;-62
2022/07/10 05:35:34;;;;;;;1.13;1.02;;;18.30;99.90;;;;;;5096209;28;20198;-61
2022/07/10 05:38:01;;;;;;;0.88;0.88;;;18.50;99.90;;;;;;5096887;28;20221;-61
2022/07/10 05:40:28;;;;;;;0.93;0.93;;;18.60;99.90;;;;;;5094481;28;20258;-62
2022/07/10 05:42:55;;;;;;;0.73;0.73;;;18.70;99.90;;;;;;5093151;28;20205;-62
2022/07/10 05:45:22;;;;;;;0.80;0.80;;;18.80;99.90;;;;;;5095532;28;20316;-62
2022/07/10 05:47:49;;;;;;;1.55;0.93;;;18.70;99.90;;;;;;5096475;28;20237;-63
2022/07/10 05:50:16;;;;;;;0.70;0.70;;;18.80;99.90;;;;;;5094178;28;20218;-63
2022/07/10 05:52:44;;;;;;;0.77;0.77;;;18.90;99.90;;;;;;5093066;28;20209;-61
2022/07/10 05:55:11;;;;;;;0.80;0.80;;;19.10;99.90;;;;;;5081383;28;20201;-63
2022/07/10 05:57:38;;;;;;;0.90;0.90;;;19.40;99.90;;;;;;5082992;28;20289;-63
2022/07/10 06:00:07;;;;;;;1.00;1.00;;;19.50;99.90;;;;;;5078889;28;20669;-62
2022/07/10 06:02:34;;;;;;;1.00;1.00;;;19.70;99.90;;;;;;5083912;28;20309;-61
2022/07/10 06:05:00;;;;;;;0.90;0.90;;;19.90;99.90;;;;;;5077476;28;20287;-61
2022/07/10 06:07:27;;;;;;;1.10;1.00;;;20.20;99.90;;;;;;5084340;28;20635;-62
2022/07/10 06:09:56;;;;;;;0.90;0.90;;;20.50;99.90;;;;;;5075490;28;20230;-63
2022/07/10 06:12:23;;;;;;;0.90;0.90;;;20.70;99.90;;;;;;5082948;28;20198;-62
2022/07/10 06:14:50;;;;;;;0.90;0.90;;;20.80;99.90;;;;;;5087095;28;20666;-62
2022/07/10 06:17:17;;;;;;;1.00;1.00;;;20.50;99.90;;;;;;5080119;28;20191;-61
2022/07/10 06:19:44;;;;;;;1.13;1.13;;;20.40;99.90;;;;;;5081406;28;20220;-63
2022/07/10 06:24:57;;;;;;;0.90;0.90;;;20.30;99.90;;;;;;5081858;28;20575;-61
2022/07/10 06:27:24;;;;;;;0.90;0.90;;;20.30;99.90;;;;;;5079581;28;20683;-62
2022/07/10 06:29:51;;;;;;;0.90;0.90;;;20.30;99.90;;;;;;5119470;22;20210;-61
2022/07/10 06:32:17;;;;;;;0.95;0.95;;;20.20;99.90;;;;;;5051751;28;20219;-62
2022/07/10 06:34:44;;;;;;;0.80;0.80;;;20.30;99.90;;;;;;5047163;28;20583;-63
2022/07/10 06:37:11;;;;;;;0.80;0.80;;;20.30;99.90;;;;;;5052098;28;20246;-61
2022/07/10 06:39:38;;;;;;;1.23;1.00;;;20.40;99.90;;;;;;5050501;28;20287;-62
2022/07/10 06:42:08;;;;;;;0.80;0.80;;;20.40;99.90;;;;;;5054622;28;20223;-61
2022/07/10 06:44:35;;;;;;;1.00;1.00;;;20.30;99.90;;;;;;5050992;28;20585;-62
2022/07/10 06:49:48;;;;;;;0.90;0.90;;;20.40;99.90;;;;;;5052617;28;20198;-61
2022/07/10 06:52:15;;;;;;;0.80;0.80;;;20.50;99.90;;;;;;5049887;28;20204;-61
2022/07/10 06:54:42;;;;;;;1.08;1.08;;;20.50;99.90;;;;;;5052209;28;20208;-61
2022/07/10 06:57:10;;;;;;;0.98;0.98;;;20.50;99.90;;;;;;5052248;28;20268;-62
2022/07/10 06:59:37;;;;;;;0.90;0.90;;;20.50;99.90;;;;;;5048431;28;20257;-62
2022/07/10 07:02:05;;;;;;;1.15;1.05;;;20.50;99.90;;;;;;5053468;28;20200;-61
2022/07/10 07:04:32;;;;;;;0.85;0.85;;;20.50;99.90;;;;;;5053784;28;20200;-61
2022/07/10 07:06:59;;;;;;;1.00;1.00;;;20.60;99.90;;;;;;5053652;28;20222;-61
2022/07/10 07:09:26;;;;;;;1.05;1.05;;;20.50;99.90;;;;;;5050205;28;20196;-64
2022/07/10 07:11:52;;;;;;;0.77;0.77;;;20.20;99.90;;;;;;5053219;28;20312;-62
2022/07/10 07:14:21;;;;;;;0.90;0.90;;;20.20;99.90;;;;;;5051512;28;20291;-63
2022/07/10 07:16:57;;;;;;;0.88;0.88;;;20.20;99.90;;;;;;5052428;28;20283;-63
2022/07/10 07:19:30;;;;;;;0.88;0.88;;;20.00;99.90;;;;;;5050207;28;20278;-63
2022/07/10 07:24:42;;;;;;;1.02;1.02;;;20.50;99.90;;;;;;5051145;28;20283;-63
2022/07/10 07:27:09;;;;;;;0.90;0.90;;;20.60;99.90;;;;;;5053264;28;20224;-63
2022/07/10 07:29:38;;;;;;;1.27;1.23;;;20.70;99.90;;;;;;5050016;28;20286;-63
2022/07/10 07:32:05;;;;;;;0.88;0.88;;;20.60;99.90;;;;;;5051099;28;20666;-61
2022/07/10 07:34:32;;;;;;;0.95;0.95;;;20.60;99.90;;;;;;5057681;28;20207;-61
2022/07/10 07:36:59;;;;;;;0.93;0.93;;;20.50;99.90;;;;;;5052205;28;20214;-63
2022/07/10 07:39:26;;;;;;;1.15;1.10;;;20.60;99.90;;;;;;5049716;28;20283;-64
2022/07/10 07:41:53;;;;;;;0.90;0.90;;;20.80;99.90;;;;;;5050865;28;20322;-63
2022/07/10 07:44:20;;;;;;;0.98;0.98;;;20.70;99.90;;;;;;5044714;28;20200;-66
2022/07/10 07:46:48;;;;;;;0.88;0.88;;;20.70;99.90;;;;;;5048460;28;20290;-63
2022/07/10 07:49:15;;;;;;;1.17;0.93;;;20.90;99.90;;;;;;5044148;28;20286;-63
2022/07/10 07:51:41;;;;;;;0.88;0.88;;;20.70;99.90;;;;;;5050263;28;20227;-62
2022/07/10 07:54:08;;;;;;;1.20;1.10;;;20.90;99.90;;;;;;5050126;28;20245;-63
2022/07/10 07:56:35;;;;;;;1.00;1.00;;;20.90;99.90;;;;;;5048646;28;20702;-65
2022/07/10 07:59:02;;;;;;;1.15;0.90;;;21.00;99.90;;;;;;5043729;28;20226;-63
2022/07/10 08:01:29;;;;;;;0.90;0.90;;;21.20;99.90;;;;;;5050308;28;20220;-64
2022/07/10 08:03:57;;;;;;;0.90;0.90;;;21.40;99.90;;;;;;5046631;28;20623;-65
2022/07/10 08:06:24;;;;;;;0.70;0.70;;;21.40;99.90;;;;;;5048569;28;20644;-63
2022/07/10 08:08:51;;;;;;;2.05;0.90;;;21.60;99.90;;;;;;5046967;28;20214;-63
2022/07/10 08:11:17;;;;;;;0.95;0.95;;;21.70;99.90;;;;;;5044552;28;20220;-63
2022/07/10 08:13:44;;;;;;;0.70;0.70;;;21.70;99.90;;;;;;5050482;28;20558;-64
2022/07/10 08:16:11;;;;;;;0.90;0.90;;;21.70;99.90;;;;;;5042983;28;20299;-63
2022/07/10 08:18:38;;;;;;;1.00;1.00;;;21.50;99.90;;;;;;5045068;28;20210;-63
2022/07/10 08:21:06;;;;;;;0.93;0.90;;;21.20;99.90;;;;;;5049396;28;20219;-63
2022/07/10 08:23:33;;;;;;;0.95;0.90;;;20.90;99.90;;;;;;5045043;28;20239;-63
2022/07/10 08:26:00;;;;;;;0.98;0.98;;;20.80;99.90;;;;;;5047369;28;20648;-64
2022/07/10 08:28:27;;;;;;;0.98;0.90;;;20.70;99.90;;;;;;5043105;28;20299;-63
2022/07/10 08:30:54;;;;;;;1.05;1.00;;;20.70;99.90;;;;;;5047956;28;20323;-63
2022/07/10 08:33:21;;;;;;;0.50;0.50;;;20.60;99.90;;;;;;5044709;28;20238;-64
2022/07/10 08:35:48;;;;;;;1.60;0.90;;;20.70;99.90;;;;;;5051018;28;20600;-65
2022/07/10 08:38:16;;;;;;;0.90;0.90;;;20.90;99.90;;;;;;5050777;28;20236;-63
2022/07/10 08:40:44;;;;;;;0.98;0.98;;;20.90;99.90;;;;;;5044970;28;20307;-64
2022/07/10 08:43:11;;;;;;;0.88;0.85;;;20.80;99.90;;;;;;5045186;28;20283;-63
2022/07/10 08:45:37;;;;;;;1.17;1.08;;;21.00;99.90;;;;;;5053315;28;20206;-63
2022/07/10 08:48:07;;;;;;;0.85;0.85;;;21.10;99.90;;;;;;5055064;28;20220;-63
2022/07/10 08:50:38;;;;;;;1.20;1.05;;;21.20;99.90;;;;;;5047123;28;20629;-63
2022/07/10 08:53:10;;;;;;;1.00;1.00;;;21.00;99.90;;;;;;5050102;28;20291;-63
2022/07/10 08:55:39;;;;;;;0.90;0.90;;;21.10;99.90;;;;;;5046519;28;20237;-63
2022/07/10 08:58:06;;;;;;;0.90;0.90;;;21.20;99.90;;;;;;5054182;28;20662;-63
2022/07/10 09:00:33;;;;;;;0.90;0.90;;;21.00;99.90;;;;;;5047966;28;20241;-64
2022/07/10 09:03:00;;;;;;;0.80;0.80;;;20.90;99.90;;;;;;5048373;28;20207;-65
2022/07/10 09:05:27;;;;;;;1.10;1.00;;;21.00;99.90;;;;;;5049730;28;20200;-63
2022/07/10 09:07:55;;;;;;;1.40;1.00;;;21.10;99.90;;;;;;5047374;28;20258;-63
2022/07/10 09:10:25;;;;;;;0.93;0.93;;;21.00;99.90;;;;;;5050206;28;20259;-62
2022/07/10 09:12:55;;;;;;;1.20;1.10;;;21.20;99.90;;;;;;5048241;28;20204;-63
2022/07/10 09:15:24;;;;;;;0.88;0.88;;;21.20;99.90;;;;;;5044348;28;20235;-62
2022/07/10 09:17:53;;;;;;;0.95;0.95;;;21.40;99.90;;;;;;5048284;28;20227;-64
2022/07/10 09:20:34;;;;;;;1.52;1.08;;;21.50;99.90;;;;;;5048333;28;20277;-63
2022/07/10 09:23:15;;;;;;;0.90;0.90;;;21.60;99.90;;;;;;5050378;28;20682;-62
2022/07/10 09:25:42;;;;;;;1.30;1.00;;;21.60;99.90;;;;;;5049674;28;20207;-63
2022/07/10 09:28:10;;;;;;;0.75;0.75;;;21.60;99.90;;;;;;5064158;28;20247;-62
2022/07/10 09:30:39;;;;;;;1.00;1.00;;;21.40;99.90;;;;;;5054346;28;20924;-62
2022/07/10 09:33:18;;;;;;;0.80;0.80;;;21.40;99.90;;;;;;5049595;28;20212;-62
2022/07/10 09:36:08;;;;;;;1.13;1.10;;;21.70;99.90;;;;;;5054100;28;20195;-62
2022/07/10 09:38:56;;;;;;;0.82;0.82;;;21.90;99.90;;;;;;5050811;28;20192;-63
2022/07/10 09:41:26;;;;;;;1.20;1.20;;;22.10;99.90;;;;;;5051214;28;20277;-63
2022/07/10 09:43:56;;;;;;;0.82;0.82;;;21.90;99.90;;;;;;5047522;28;20263;-63
2022/07/10 09:46:25;;;;;;;1.40;1.30;;;21.70;99.90;;;;;;5047570;28;20220;-63
2022/07/10 09:49:03;;;;;;;0.90;0.90;;;21.60;99.90;;;;;;5050763;28;20303;-62
2022/07/10 09:51:32;;;;;;;1.08;0.98;;;21.60;99.90;;;;;;5048704;28;20228;-65
2022/07/10 09:54:02;;;;;;;1.05;0.90;;;21.70;99.90;;;;;;5046924;28;20208;-64
2022/07/10 09:56:35;;;;;;;0.90;0.90;;;21.70;99.90;;;;;;5052285;28;20196;-63
2022/07/10 09:59:07;;;;;;;0.90;0.90;;;21.70;99.90;;;;;;5051794;28;20204;-63
2022/07/10 10:01:36;;;;;;;1.25;1.15;;;21.80;99.90;;;;;;5052136;28;20753;-63
2022/07/10 10:04:05;;;;;;;1.05;1.05;;;21.80;99.90;;;;;;5054001;28;20657;-63
2022/07/10 10:06:34;;;;;;;0.90;0.90;;;21.90;99.90;;;;;;5048865;28;20231;-63
2022/07/10 10:09:06;;;;;;;0.90;0.90;;;22.00;99.90;;;;;;5048204;28;20231;-63
2022/07/10 10:11:35;;;;;;;0.80;0.80;;;22.20;99.90;;;;;;5049850;28;21681;-63
2022/07/10 10:14:04;;;;;;;1.30;1.15;;;22.20;99.90;;;;;;5050518;28;20751;-63
2022/07/10 10:16:31;;;;;;;1.00;1.00;;;22.00;99.90;;;;;;5050227;28;20200;-63
2022/07/10 10:21:46;;;;;;;0.82;0.82;;;21.90;99.90;;;;;;5042472;28;20231;-62
2022/07/10 10:24:14;;;;;;;0.80;0.80;;;21.90;99.90;;;;;;5047597;28;20211;-63
2022/07/10 10:26:42;;;;;;;0.80;0.73;;;22.20;99.90;;;;;;5044230;28;20709;-63
2022/07/10 10:29:12;;;;;;;0.80;0.80;;;22.30;99.90;;;;;;5045543;28;20294;-63
2022/07/10 10:31:40;;;;;;;0.80;0.80;;;22.20;99.90;;;;;;5041025;28;20229;-64
2022/07/10 10:34:07;;;;;;;1.00;1.00;;;22.30;99.90;;;;;;5039160;28;20205;-64
2022/07/10 10:36:48;;;;;;;1.00;1.00;;;22.60;99.90;;;;;;5041804;28;21001;-62
2022/07/10 10:39:18;;;;;;;0.82;0.82;;;22.40;99.90;;;;;;5042416;28;20231;-63
2022/07/10 10:41:49;;;;;;;0.70;0.70;;;22.20;99.90;;;;;;5049989;28;20228;-63
2022/07/10 10:44:32;;;;;;;0.80;0.80;;;22.40;99.90;;;;;;5054202;28;20287;-62
2022/07/10 10:47:07;;;;;;;0.85;0.85;;;22.50;99.90;;;;;;5044375;28;20235;-63
2022/07/10 10:49:56;;;;;;;0.70;0.70;;;22.60;99.90;;;;;;5050768;28;20215;-64
2022/07/10 10:52:24;;;;;;;0.80;0.80;;;22.70;99.90;;;;;;5050472;28;20303;-62
2022/07/10 10:55:07;;;;;;;0.98;0.88;;;22.80;99.90;;;;;;5046331;28;20255;-63
2022/07/10 10:57:51;;;;;;;0.75;0.75;;;22.60;99.90;;;;;;5048373;28;20264;-63
2022/07/10 11:00:40;;;;;;;0.93;0.90;;;22.30;99.90;;;;;;5043698;28;20298;-62
2022/07/10 11:03:27;;;;;;;0.80;0.80;;;22.50;99.90;;;;;;5051649;28;20689;-63
2022/07/10 11:05:55;;;;;;;0.63;0.63;;;22.50;99.90;;;;;;5042062;28;20206;-63
2022/07/10 11:08:39;;;;;;;0.80;0.80;;;22.60;99.90;;;;;;5046722;28;20228;-62
2022/07/10 11:11:42;;;;;;;0.85;0.85;;;22.60;99.90;;;;;;5046084;28;20742;-63
2022/07/10 11:14:10;;;;;;;0.70;0.70;;;22.50;99.90;;;;;;5005257;28;20278;-63
2022/07/10 11:16:39;;;;;;;0.90;0.90;;;22.40;99.90;;;;;;5043309;28;20228;-63
2022/07/10 11:19:06;;;;;;;0.90;0.90;;;22.70;99.90;;;;;;5040275;28;20205;-62
2022/07/10 11:21:48;;;;;;;0.70;0.65;;;22.70;99.90;;;;;;5047933;28;20235;-62
2022/07/10 11:24:34;;;;;;;0.90;0.90;;;22.60;99.90;;;;;;5045563;28;20193;-63
2022/07/10 11:27:10;;;;;;;1.10;0.88;;;22.60;99.90;;;;;;5049208;28;20237;-63
2022/07/10 11:29:39;;;;;;;0.77;0.75;;;22.80;99.90;;;;;;5051381;28;20199;-63
2022/07/10 11:32:08;;;;;;;0.63;0.63;;;22.80;99.90;;;;;;5051022;28;20240;-63
2022/07/10 11:34:36;;;;;;;0.90;0.90;;;23.00;99.90;;;;;;5045898;28;20200;-63
2022/07/10 11:37:03;;;;;;;0.77;0.77;;;22.90;99.90;;;;;;5046526;28;20254;-63
2022/07/10 11:39:30;;;;;;;0.70;0.70;;;23.10;99.90;;;;;;5051753;28;20295;-63
2022/07/10 11:41:57;;;;;;;0.73;0.73;;;23.10;99.90;;;;;;5056715;28;20243;-64
2022/07/10 11:44:24;;;;;;;0.80;0.80;;;23.00;99.90;;;;;;5045990;28;20230;-63
2022/07/10 11:46:54;;;;;;;0.60;0.60;;;23.00;99.90;;;;;;5051215;28;20260;-63
2022/07/10 11:49:22;;;;;;;0.65;0.65;;;23.00;99.90;;;;;;5045353;28;20253;-63
2022/07/10 11:51:49;;;;;;;0.60;0.60;;;23.00;99.90;;;;;;5046452;28;20709;-62
2022/07/10 11:54:18;;;;;;;0.93;0.80;;;23.20;99.90;;;;;;5044927;28;20197;-63
2022/07/10 11:56:48;;;;;;;0.50;0.50;;;23.30;99.90;;;;;;5042971;28;20698;-63
2022/07/10 11:59:16;;;;;;;0.57;0.57;;;23.50;99.90;;;;;;5041057;28;20227;-63
2022/07/10 12:01:45;;;;;;;0.75;0.75;;;23.40;99.90;;;;;;5053030;28;20229;-62
2022/07/10 12:04:13;;;;;;;0.65;0.65;;;23.60;99.90;;;;;;5049818;28;20295;-64
2022/07/10 12:06:45;;;;;;;0.65;0.65;;;23.70;99.90;;;;;;5046937;28;20227;-62
2022/07/10 12:09:14;;;;;;;0.68;0.68;;;23.80;99.90;;;;;;5049041;28;20192;-62
2022/07/10 12:11:42;;;;;;;0.80;0.80;;;23.80;99.90;;;;;;5043049;28;20220;-63
2022/07/10 12:14:12;;;;;;;0.60;0.60;;;23.50;99.90;;;;;;5038056;28;20230;-63
2022/07/10 12:16:39;;;;;;;0.60;0.60;;;23.70;99.90;;;;;;5050217;28;20207;-63
2022/07/10 12:19:07;;;;;;;0.70;0.70;;;23.60;99.90;;;;;;5043574;28;20224;-62
2022/07/10 12:21:34;;;;;;;0.65;0.60;;;23.60;99.90;;;;;;5047260;28;20223;-63
2022/07/10 12:24:04;;;;;;;0.63;0.63;;;23.60;99.90;;;;;;5048106;28;20210;-62
2022/07/10 12:26:35;;;;;;;0.60;0.60;;;23.70;99.90;;;;;;5048022;28;20192;-64
2022/07/10 12:29:04;;;;;;;0.57;0.57;;;23.60;99.90;;;;;;5044294;28;20254;-63
2022/07/10 12:31:32;;;;;;;0.80;0.80;;;23.40;99.90;;;;;;5047323;28;20266;-65
2022/07/10 12:34:02;;;;;;;0.80;0.80;;;23.50;99.90;;;;;;5043330;28;20235;-63
2022/07/10 12:36:44;;;;;;;0.45;0.45;;;23.50;99.90;;;;;;5035742;28;20215;-62
2022/07/10 12:39:12;;;;;;;0.70;0.70;;;23.60;99.90;;;;;;5046585;28;20204;-62
2022/07/10 12:42:00;;;;;;;0.73;0.60;;;23.50;99.90;;;;;;5052361;28;20668;-64
2022/07/10 12:44:35;;;;;;;0.40;0.40;;;23.60;99.90;;;;;;5050542;28;20203;-64
2022/07/10 12:47:03;;;;;;;0.47;0.47;;;23.70;99.90;;;;;;5045246;28;20263;-63
2022/07/10 12:49:30;;;;;;;0.50;0.50;;;23.70;99.90;;;;;;5044373;28;20231;-64
2022/07/10 12:51:57;;;;;;;0.73;0.73;;;24.10;99.90;;;;;;5042573;28;20795;-63
2022/07/10 12:54:37;;;;;;;0.70;0.70;;;24.10;99.90;;;;;;5035889;28;20295;-63
2022/07/10 12:57:05;;;;;;;0.35;0.35;;;24.00;99.90;;;;;;5040003;28;20207;-63
2022/07/10 12:59:35;;;;;;;0.73;0.73;;;24.10;99.90;;;;;;5047430;28;20287;-64
2022/07/10 13:02:16;;;;;;;0.70;0.70;;;24.10;99.90;;;;;;5049416;28;20577;-65
2022/07/10 13:04:53;;;;;;;0.60;0.60;;;24.00;99.90;;;;;;5037552;28;20195;-63
2022/07/10 13:07:21;;;;;;;0.57;0.57;;;24.00;99.90;;;;;;5040799;28;20278;-63
2022/07/10 13:09:50;;;;;;;0.70;0.70;;;24.00;99.90;;;;;;5047865;28;20273;-64
2022/07/10 13:12:17;;;;;;;0.75;0.60;;;24.20;99.90;;;;;;5049459;28;20217;-63